Time;durP1;ratioP1;P1;durP2;ratioP2;P2;SDS_P1;SDS_P2;PMS_P1;PMS_P2;Temp;Humidity;BMP_temperature;BMP_pressure;BME280_temperature;BME280_humidity;BME280_pressure;Samples;Min_cycle;Max_cycle;Signal;HPM_P1;HPM_P2
2022/07/13 00:01:19;;;;;;;8.65;2.70;;;;;;;;;;4984622;28;20044;-56
2022/07/13 00:03:46;;;;;;;9.18;2.63;;;;;;;;;;4979027;28;20027;-56
2022/07/13 00:06:11;;;;;;;8.50;2.75;;;26.50;52.20;;;;;;4975045;28;20042;-56
2022/07/13 00:08:37;;;;;;;4.90;2.93;;;26.40;54.50;;;;;;4972442;28;20387;-54
2022/07/13 00:11:03;;;;;;;4.10;2.50;;;26.30;54.30;;;;;;4974283;28;20050;-56
2022/07/13 00:13:29;;;;;;;6.93;2.80;;;;;;;;;;4985108;28;20054;-56
2022/07/13 00:15:55;;;;;;;3.15;2.50;;;;;;;;;;4993079;28;20037;-56
2022/07/13 00:18:21;;;;;;;6.30;3.22;;;;;;;;;;4976308;28;20429;-54
2022/07/13 00:20:47;;;;;;;11.65;2.72;;;;;;;;;;4972710;28;20026;-57
2022/07/13 00:23:13;;;;;;;5.32;2.92;;;;;;;;;;4984253;28;20041;-55
2022/07/13 00:25:39;;;;;;;8.52;3.58;;;;;;;;;;4974552;28;20023;-56
2022/07/13 00:28:05;;;;;;;12.15;2.78;;;;;;;;;;4974505;28;20256;-56
2022/07/13 00:30:31;;;;;;;5.07;2.53;;;;;;;;;;4980227;28;20173;-53
2022/07/13 00:32:57;;;;;;;3.97;2.33;;;;;;;;;;4980248;28;20030;-53
2022/07/13 00:35:23;;;;;;;8.10;3.57;;;;;;;;;;4974383;28;20590;-56
2022/07/13 00:37:49;;;;;;;5.30;2.92;;;;;;;;;;4974311;28;20302;-55
2022/07/13 00:40:15;;;;;;;3.95;3.28;;;;;;;;;;4973426;28;20109;-58
2022/07/13 00:42:41;;;;;;;7.67;2.73;;;;;;;;;;4979913;28;20238;-54
2022/07/13 00:45:08;;;;;;;6.53;2.60;;;;;;;;;;4978656;28;20313;-55
2022/07/13 00:47:34;;;;;;;4.60;3.03;;;;;;;;;;4974018;28;20034;-55
2022/07/13 00:50:02;;;;;;;8.80;2.90;;;;;;;;;;4973726;28;20049;-56
2022/07/13 00:52:28;;;;;;;5.15;3.13;;;;;;;;;;4973832;28;20085;-56
2022/07/13 00:54:54;;;;;;;5.70;2.92;;;;;;;;;;4972348;28;20034;-56
2022/07/13 00:57:21;;;;;;;7.75;3.05;;;;;;;;;;4973683;28;20490;-55
2022/07/13 00:59:47;;;;;;;4.65;3.25;;;;;;;;;;4973099;28;20042;-57
2022/07/13 01:02:13;;;;;;;4.22;2.90;;;;;;;;;;4973990;28;20077;-55
2022/07/13 01:04:39;;;;;;;9.23;3.47;;;;;;;;;;4973413;28;20113;-54
2022/07/13 01:07:05;;;;;;;6.00;3.22;;;;;;;;;;4973481;28;20038;-54
2022/07/13 01:09:32;;;;;;;4.65;3.40;;;;;;;;;;4973418;28;20054;-56
2022/07/13 01:11:59;;;;;;;9.93;3.47;;;;;;;;;;4971936;28;20124;-57
2022/07/13 01:14:25;;;;;;;5.97;3.25;;;;;;;;;;4973352;28;20026;-54
2022/07/13 01:16:51;;;;;;;5.93;2.93;;;;;;;;;;4973318;28;20138;-54
2022/07/13 01:19:18;;;;;;;6.38;3.53;;;26.30;54.50;;;;;;4973150;28;20277;-55
2022/07/13 01:21:45;;;;;;;6.57;2.95;;;25.50;58.10;;;;;;4973459;28;20023;-55
2022/07/13 01:24:12;;;;;;;9.60;4.18;;;25.40;58.10;;;;;;4970958;28;20052;-54
2022/07/13 01:26:39;;;;;;;6.18;4.07;;;;;;;;;;4972884;28;20109;-57
2022/07/13 01:29:05;;;;;;;;;;;;;;;;;;4973144;28;20039;-53
2022/07/13 01:31:38;;;;;;;8.05;3.08;;;;;;;;;;4972874;28;20382;-54
2022/07/13 01:34:05;;;;;;;10.02;3.50;;;;;;;;;;4973388;28;20027;-55
2022/07/13 01:36:31;;;;;;;8.57;3.40;;;;;;;;;;4972933;28;20038;-56
2022/07/13 01:38:58;;;;;;;6.38;3.67;;;;;;;;;;4973108;28;20439;-56
2022/07/13 01:41:25;;;;;;;7.07;3.55;;;;;;;;;;4972650;28;20097;-55
2022/07/13 01:43:51;;;;;;;5.57;3.70;;;;;;;;;;4973193;28;20026;-56
2022/07/13 01:46:17;;;;;;;5.50;3.77;;;;;;;;;;4972611;28;20038;-54
2022/07/13 01:48:43;;;;;;;10.60;3.90;;;;;;;;;;4972463;28;20346;-56
2022/07/13 01:51:09;;;;;;;5.63;3.53;;;;;;;;;;4972662;28;20030;-54
2022/07/13 01:53:35;;;;;;;4.03;3.07;;;;;;;;;;4972724;28;20321;-54
2022/07/13 01:56:01;;;;;;;6.53;3.57;;;;;;;;;;4972604;28;20106;-57
2022/07/13 01:58:27;;;;;;;7.87;3.40;;;;;;;;;;4972506;28;20269;-56
2022/07/13 02:00:54;;;;;;;9.63;3.60;;;;;;;;;;4972839;28;20030;-56
2022/07/13 02:03:20;;;;;;;5.68;3.42;;;;;;;;;;4972396;28;20787;-54
2022/07/13 02:05:46;;;;;;;4.22;2.70;;;;;;;;;;4972988;28;20065;-54
2022/07/13 02:08:12;;;;;;;3.65;3.35;;;;;;;;;;4971988;28;20034;-57
2022/07/13 02:10:38;;;;;;;4.30;3.13;;;;;;;;;;4971371;28;20074;-54
2022/07/13 02:13:05;;;;;;;11.27;4.43;;;;;;;;;;4970782;28;20305;-54
2022/07/13 02:15:31;;;;;;;9.60;3.85;;;;;;;;;;4972064;28;20058;-56
2022/07/13 02:17:57;;;;;;;4.05;3.42;;;;;;;;;;4972814;28;20506;-56
2022/07/13 02:20:23;;;;;;;4.43;3.50;;;;;;;;;;4975734;28;20057;-56
2022/07/13 02:22:49;;;;;;;9.67;4.00;;;;;;;;;;4976446;28;20027;-56
2022/07/13 02:25:15;;;;;;;7.17;4.30;;;;;;;;;;4976166;28;20273;-54
2022/07/13 02:27:42;;;;;;;4.97;3.65;;;;;;;;;;4976476;28;20332;-57
2022/07/13 02:30:09;;;;;;;5.35;3.50;;;;;;;;;;4976314;28;20396;-54
2022/07/13 02:32:35;;;;;;;7.28;4.50;;;;;;;;;;4983601;28;20085;-54
2022/07/13 02:35:01;;;;;;;11.82;5.10;;;;;;;;;;4976184;28;20023;-56
2022/07/13 02:37:27;;;;;;;9.90;4.87;;;;;;;;;;4981955;28;20088;-56
2022/07/13 02:39:55;;;;;;;6.80;3.87;;;;;;;;;;4977152;28;20632;-54
2022/07/13 02:42:22;;;;;;;7.18;4.10;;;;;;;;;;4976011;28;20027;-55
2022/07/13 02:44:48;;;;;;;10.20;4.75;;;;;;;;;;4976184;28;20023;-56
2022/07/13 02:47:14;;;;;;;12.85;4.75;;;;;;;;;;4973029;28;20039;-57
2022/07/13 02:49:40;;;;;;;6.93;4.10;;;;;;;;;;4974022;28;20034;-56
2022/07/13 02:52:07;;;;;;;5.87;4.57;;;;;;;;;;4973324;28;20034;-54
2022/07/13 02:54:33;;;;;;;8.77;5.03;;;;;;;;;;4975526;28;20266;-56
2022/07/13 02:56:59;;;;;;;9.95;4.43;;;;;;;;;;4980835;28;20443;-54
2022/07/13 02:59:25;;;;;;;5.55;4.30;;;;;;;;;;4976748;28;20066;-55
2022/07/13 03:01:51;;;;;;;7.90;4.10;;;;;;;;;;4976314;28;20031;-54
2022/07/13 03:04:17;;;;;;;4.97;4.47;;;;;;;;;;4984237;28;20030;-56
2022/07/13 03:06:45;;;;;;;5.28;4.78;;;;;;;;;;4976713;28;20133;-56
2022/07/13 03:09:11;;;;;;;6.28;4.82;;;;;;;;;;4987941;28;20027;-55
2022/07/13 03:11:37;;;;;;;4.83;4.43;;;;;;;;;;4975850;28;20029;-57
2022/07/13 03:14:03;;;;;;;5.27;4.57;;;;;;;;;;4975907;28;20027;-56
2022/07/13 03:16:29;;;;;;;9.73;5.93;;;;;;;;;;4977921;28;20270;-54
2022/07/13 03:18:55;;;;;;;6.47;5.13;;;;;;;;;;4975190;28;20033;-56
2022/07/13 03:21:21;;;;;;;8.20;5.57;;;;;;;;;;4975011;28;20058;-55
2022/07/13 03:23:47;;;;;;;6.50;5.25;;;;;;;;;;4975120;28;20515;-54
2022/07/13 03:26:13;;;;;;;9.30;6.17;;;;;;;;;;4974736;28;20023;-55
2022/07/13 03:28:39;;;;;;;8.00;5.68;;;;;;;;;;4975567;28;20027;-56
2022/07/13 03:31:05;;;;;;;7.13;6.07;;;;;;;;;;4974037;28;20030;-56
2022/07/13 03:33:31;;;;;;;7.90;6.28;;;;;;;;;;4985162;28;20058;-54
2022/07/13 03:35:57;;;;;;;11.25;6.00;;;;;;;;;;4984712;28;20035;-54
2022/07/13 03:38:23;;;;;;;7.80;5.70;;;;;;;;;;4973764;28;20062;-54
2022/07/13 03:40:50;;;;;;;7.87;5.67;;;;;;;;;;4978488;28;20061;-54
2022/07/13 03:43:16;;;;;;;5.20;4.70;;;;;;;;;;4981362;28;20777;-53
2022/07/13 03:45:42;;;;;;;8.87;5.50;;;;;;;;;;4977432;28;20054;-54
2022/07/13 03:48:08;;;;;;;6.07;4.97;;;;;;;;;;4974971;28;20274;-56
2022/07/13 03:50:34;;;;;;;8.70;5.32;;;;;;;;;;4974496;28;20493;-56
2022/07/13 03:53:01;;;;;;;7.30;5.40;;;;;;;;;;4974746;28;20030;-56
2022/07/13 03:55:27;;;;;;;10.27;5.43;;;;;;;;;;4974908;28;20077;-56
2022/07/13 03:57:53;;;;;;;14.10;5.87;;;;;;;;;;4975049;28;20058;-54
2022/07/13 04:00:19;;;;;;;10.68;5.63;;;;;;;;;;4973604;28;20030;-57
2022/07/13 04:02:45;;;;;;;11.20;6.38;;;;;;;;;;4972492;28;20031;-55
2022/07/13 04:05:11;;;;;;;9.13;5.60;;;;;;;;;;4974549;28;20069;-57
2022/07/13 04:07:37;;;;;;;7.75;5.75;;;;;;;;;;4974416;28;20022;-58
2022/07/13 04:10:03;;;;;;;10.37;5.90;;;;;;;;;;4972996;28;20049;-58
2022/07/13 04:12:29;;;;;;;10.80;6.70;;;;;;;;;;4974556;28;20038;-56
2022/07/13 04:14:56;;;;;;;9.05;6.68;;;;;;;;;;4974523;28;20054;-55
2022/07/13 04:17:22;;;;;;;11.20;6.95;;;;;;;;;;4974470;28;20033;-54
2022/07/13 04:19:48;;;;;;;7.67;6.93;;;;;;;;;;4974222;28;20027;-55
2022/07/13 04:22:14;;;;;;;8.83;6.50;;;;;;;;;;4974484;28;20266;-54
2022/07/13 04:24:40;;;;;;;9.07;6.03;;;;;;;;;;4973559;28;20459;-59
2022/07/13 04:27:06;;;;;;;8.47;6.37;;;;;;;;;;4974301;28;20093;-58
2022/07/13 04:29:32;;;;;;;8.80;6.93;;;;;;;;;;4974216;28;20392;-59
2022/07/13 04:31:59;;;;;;;9.73;6.88;;;;;;;;;;4973950;28;20258;-57
2022/07/13 04:34:25;;;;;;;8.30;5.88;;;;;;;;;;4973969;28;20023;-58
2022/07/13 04:36:51;;;;;;;11.80;6.57;;;;;;;;;;4973979;28;20081;-57
2022/07/13 04:39:18;;;;;;;8.90;5.97;;;;;;;;;;4974148;28;20027;-58
2022/07/13 04:41:44;;;;;;;13.82;7.10;;;;;;;;;;4973648;28;20435;-56
2022/07/13 04:44:10;;;;;;;9.57;6.10;;;;;;;;;;4972785;28;20030;-58
2022/07/13 04:46:36;;;;;;;9.50;6.60;;;;;;;;;;4973728;28;20034;-58
2022/07/13 04:49:02;;;;;;;9.33;6.87;;;;;;;;;;4973626;28;20031;-58
2022/07/13 04:51:28;;;;;;;8.05;7.10;;;;;;;;;;4974004;28;20101;-58
2022/07/13 04:53:54;;;;;;;10.13;7.43;;;;;;;;;;4973821;28;20073;-57
2022/07/13 04:56:20;;;;;;;36.87;9.10;;;;;;;;;;4973759;28;20077;-57
2022/07/13 04:58:47;;;;;;;15.38;7.18;;;;;;;;;;4973808;28;20019;-59
2022/07/13 05:01:13;;;;;;;12.30;5.83;;;;;;;;;;4973358;28;20377;-56
2022/07/13 05:03:39;;;;;;;13.53;7.70;;;;;;;;;;4973771;28;20590;-55
2022/07/13 05:06:05;;;;;;;12.83;7.87;;;;;;;;;;4995873;22;20050;-53
2022/07/13 05:08:31;;;;;;;11.90;7.90;;;;;;;;;;4991071;28;20084;-51
2022/07/13 05:10:57;;;;;;;30.70;8.80;;;;;;;;;;4992583;28;20105;-52
2022/07/13 05:13:23;;;;;;;16.67;7.80;;;;;;;;;;4993202;28;20034;-53
2022/07/13 05:15:49;;;;;;;11.70;7.77;;;24.50;62.80;;;;;;4992013;28;20098;-51
2022/07/13 05:18:15;;;;;;;12.00;7.13;;;;;;;;;;4993157;28;20349;-53
2022/07/13 05:20:41;;;;;;;11.25;8.07;;;;;;;;;;4991748;28;20126;-51
2022/07/13 05:23:07;;;;;;;13.47;7.87;;;;;;;;;;4993050;28;20058;-52
2022/07/13 05:25:33;;;;;;;19.17;8.43;;;;;;;;;;4993052;28;20038;-54
2022/07/13 05:27:58;;;;;;;16.63;7.23;;;24.90;62.30;;;;;;4993109;28;20304;-51
2022/07/13 05:30:25;;;;;;;14.77;6.70;;;;;;;;;;4992729;28;20309;-52
2022/07/13 05:32:51;;;;;;;12.68;6.40;;;;;;;;;;4992400;28;20022;-51
2022/07/13 05:35:17;;;;;;;10.50;7.13;;;;;;;;;;4992880;28;20478;-52
2022/07/13 05:37:43;;;;;;;20.50;7.00;;;;;;;;;;4993327;28;20022;-52
2022/07/13 05:40:09;;;;;;;15.70;6.93;;;25.10;62.30;;;;;;4992793;28;20642;-52
2022/07/13 05:42:35;;;;;;;13.23;6.93;;;25.30;62.40;;;;;;4992848;28;20084;-52
2022/07/13 05:45:01;;;;;;;15.47;6.40;;;25.30;62.30;;;;;;4992616;28;20742;-53
2022/07/13 05:47:26;;;;;;;12.77;6.63;;;25.30;62.30;;;;;;4992936;28;20499;-51
2022/07/13 05:49:52;;;;;;;13.47;6.57;;;25.30;62.30;;;;;;4992494;28;20694;-52
2022/07/13 05:52:18;;;;;;;16.77;6.83;;;25.30;62.50;;;;;;4992848;28;20033;-52
2022/07/13 05:54:43;;;;;;;11.53;6.13;;;25.40;62.50;;;;;;4992048;28;20053;-51
2022/07/13 05:57:09;;;;;;;6.97;5.80;;;25.40;62.40;;;;;;4992560;28;20023;-52
2022/07/13 05:59:35;;;;;;;11.63;6.20;;;25.40;62.20;;;;;;4992438;28;20022;-52
2022/07/13 06:02:00;;;;;;;9.23;6.17;;;25.40;62.40;;;;;;4991103;28;20032;-53
2022/07/13 06:04:26;;;;;;;7.40;6.17;;;25.50;62.60;;;;;;4992507;28;20106;-51
2022/07/13 06:06:52;;;;;;;10.83;6.37;;;25.60;62.70;;;;;;4992367;28;20495;-52
2022/07/13 06:09:18;;;;;;;12.97;5.43;;;25.70;63.00;;;;;;4991025;28;20038;-52
2022/07/13 06:11:46;;;;;;;8.50;6.07;;;25.70;62.70;;;;;;4992443;28;20678;-52
2022/07/13 06:14:12;;;;;;;6.20;4.38;;;;;;;;;;4992240;28;20080;-54
2022/07/13 06:16:38;;;;;;;5.57;4.50;;;;;;;;;;4992355;28;20468;-51
2022/07/13 06:19:04;;;;;;;7.87;4.83;;;;;;;;;;4992339;28;20771;-53
2022/07/13 06:21:30;;;;;;;10.98;4.07;;;;;;;;;;4988934;28;20030;-55
2022/07/13 06:23:56;;;;;;;13.93;5.22;;;;;;;;;;4989844;28;20062;-53
2022/07/13 06:26:22;;;;;;;11.77;4.32;;;;;;;;;;4991806;28;20065;-54
2022/07/13 06:28:48;;;;;;;10.73;5.07;;;;;;;;;;4991386;28;20030;-54
2022/07/13 06:31:14;;;;;;;6.18;4.43;;;;;;;;;;4990439;28;20026;-55
2022/07/13 06:33:43;;;;;;;9.38;4.63;;;;;;;;;;4991818;28;20468;-52
2022/07/13 06:36:09;;;;;;;6.70;4.00;;;;;;;;;;4991791;28;20514;-55
2022/07/13 06:38:35;;;;;;;6.63;3.50;;;;;;;;;;4991923;28;20565;-53
2022/07/13 06:41:01;;;;;;;7.33;3.53;;;;;;;;;;4991923;28;20261;-53
2022/07/13 06:43:27;;;;;;;3.35;3.03;;;;;;;;;;4991853;28;20258;-55
2022/07/13 06:45:54;;;;;;;6.60;3.10;;;;;;;;;;4991653;28;20514;-52
2022/07/13 06:48:20;;;;;;;8.95;3.60;;;;;;;;;;4991573;28;20375;-54
2022/07/13 06:50:46;;;;;;;7.53;3.17;;;;;;;;;;4991190;28;20463;-55
2022/07/13 06:53:12;;;;;;;6.65;2.10;;;;;;;;;;4991843;28;20031;-55
2022/07/13 06:55:38;;;;;;;4.25;2.63;;;;;;;;;;4991414;28;20073;-55
2022/07/13 06:58:04;;;;;;;7.78;2.83;;;;;;;;;;4991640;28;20026;-55
2022/07/13 07:00:30;;;;;;;4.40;2.10;;;;;;;;;;4990978;28;20034;-55
2022/07/13 07:02:56;;;;;;;6.47;2.83;;;;;;;;;;4991064;28;20061;-54
2022/07/13 07:05:23;;;;;;;6.50;2.42;;;;;;;;;;4992646;28;20042;-56
2022/07/13 07:07:49;;;;;;;7.28;2.15;;;;;;;;;;4995337;28;20458;-55
2022/07/13 07:10:15;;;;;;;3.10;1.97;;;;;;;;;;4995195;28;20026;-55
2022/07/13 07:12:41;;;;;;;4.72;1.85;;;;;;;;;;4994928;28;20311;-53
2022/07/13 07:15:07;;;;;;;3.78;1.75;;;;;;;;;;4994729;28;20129;-54
2022/07/13 07:17:33;;;;;;;3.78;2.03;;;;;;;;;;4994743;28;20025;-51
2022/07/13 07:20:06;;;;;;;2.97;1.85;;;;;;;;;;4994685;28;20499;-56
2022/07/13 07:22:32;;;;;;;6.93;2.08;;;27.00;60.10;;;;;;4994911;28;20518;-51
2022/07/13 07:24:57;;;;;;;5.77;2.13;;;27.20;59.60;;;;;;4993325;28;20041;-53
2022/07/13 07:27:23;;;;;;;4.63;2.33;;;27.30;58.70;;;;;;4995056;28;20117;-52
2022/07/13 07:29:49;;;;;;;3.10;1.93;;;27.30;58.50;;;;;;4994116;28;20507;-52
2022/07/13 07:32:15;;;;;;;2.53;1.87;;;27.40;58.60;;;;;;4994591;28;20029;-55
2022/07/13 07:34:40;;;;;;;7.53;2.03;;;27.40;58.80;;;;;;4994674;28;20027;-54
2022/07/13 07:37:06;;;;;;;4.43;2.17;;;;;;;;;;4994130;28;20038;-55
2022/07/13 07:39:32;;;;;;;5.25;1.50;;;27.50;58.70;;;;;;4993208;28;20052;-53
2022/07/13 07:41:58;;;;;;;5.00;1.27;;;;;;;;;;4992818;28;20546;-54
2022/07/13 07:44:24;;;;;;;4.00;1.60;;;;;;;;;;4994432;28;20026;-54
2022/07/13 07:46:50;;;;;;;7.90;1.95;;;;;;;;;;4994948;28;20030;-55
2022/07/13 07:49:16;;;;;;;2.72;1.10;;;27.50;56.40;;;;;;4994735;28;20022;-53
2022/07/13 07:51:42;;;;;;;4.70;2.00;;;27.60;54.90;;;;;;4994846;28;20033;-50
2022/07/13 07:54:08;;;;;;;3.83;1.50;;;27.60;55.10;;;;;;4994800;28;20077;-54
2022/07/13 07:56:34;;;;;;;5.53;1.37;;;27.60;54.20;;;;;;4994925;28;20379;-55
2022/07/13 07:59:00;;;;;;;1.02;0.90;;;27.70;53.80;;;;;;4994588;28;20023;-54
2022/07/13 08:01:28;;;;;;;2.30;1.00;;;;;;;;;;4994893;28;20027;-51
2022/07/13 08:03:54;;;;;;;3.40;1.40;;;;;;;;;;4994671;28;20057;-54
2022/07/13 08:06:21;;;;;;;2.60;1.30;;;;;;;;;;4994401;28;20026;-51
2022/07/13 08:08:47;;;;;;;3.13;1.05;;;;;;;;;;4994371;28;20031;-52
2022/07/13 08:11:17;;;;;;;1.92;1.00;;;;;;;;;;4994453;28;20030;-52
2022/07/13 08:13:43;;;;;;;3.70;1.35;;;;;;;;;;4994508;28;20029;-52
2022/07/13 08:16:10;;;;;;;6.93;1.40;;;;;;;;;;4993869;28;20021;-53
2022/07/13 08:18:36;;;;;;;3.33;1.40;;;;;;;;;;4994001;28;20092;-52
2022/07/13 08:21:02;;;;;;;4.07;1.65;;;;;;;;;;4993967;28;20054;-54
2022/07/13 08:26:13;;;;;;;2.58;1.55;;;;;;;;;;4989943;28;20029;-51
2022/07/13 08:28:39;;;;;;;4.07;1.42;;;;;;;;;;4993676;28;20125;-54
2022/07/13 08:31:06;;;;;;;6.88;1.55;;;;;;;;;;4993670;28;20419;-51
2022/07/13 08:39:01;;;;;;;2.60;1.40;;;;;;;;;;4993688;28;20057;-51
2022/07/13 08:41:27;;;;;;;2.85;1.33;;;;;;;;;;4993817;28;20022;-51
2022/07/13 08:43:53;;;;;;;4.68;1.52;;;;;;;;;;4992169;28;20041;-54
2022/07/13 08:46:21;;;;;;;3.42;1.63;;;;;;;;;;4993156;28;20022;-54
2022/07/13 08:48:50;;;;;;;5.22;1.75;;;;;;;;;;4991975;28;20085;-52
2022/07/13 08:51:20;;;;;;;5.30;1.42;;;;;;;;;;4993256;28;20034;-55
2022/07/13 08:53:46;;;;;;;10.73;2.47;;;;;;;;;;4992123;28;20014;-54
2022/07/13 08:56:12;;;;;;;1.40;1.30;;;;;;;;;;4993211;28;20019;-53
2022/07/13 08:58:39;;;;;;;4.82;1.40;;;;;;;;;;4992963;28;20482;-54
2022/07/13 09:01:05;;;;;;;8.38;1.95;;;;;;;;;;4993067;28;20018;-55
2022/07/13 09:03:35;;;;;;;17.00;2.45;;;;;;;;;;4993497;28;20106;-51
2022/07/13 09:06:01;;;;;;;6.50;1.60;;;27.70;53.60;;;;;;4993372;28;20038;-54
2022/07/13 09:08:27;;;;;;;4.30;1.80;;;29.00;52.30;;;;;;4992770;28;20069;-56
2022/07/13 09:10:57;;;;;;;3.20;1.63;;;29.10;51.00;;;;;;4992844;28;20030;-56
2022/07/13 09:13:55;;;;;;;6.57;1.92;;;29.10;51.40;;;;;;4992894;28;20030;-55
2022/07/13 09:16:23;;;;;;;2.15;1.30;;;29.20;50.50;;;;;;4985382;28;20436;-54
2022/07/13 09:18:53;;;;;;;6.45;2.05;;;29.20;51.10;;;;;;4992913;28;20430;-53
2022/07/13 09:21:20;;;;;;;7.22;1.58;;;29.20;50.20;;;;;;4992040;28;20089;-56
2022/07/13 09:23:54;;;;;;;6.78;1.60;;;29.20;50.20;;;;;;4992896;28;20031;-54
2022/07/13 09:26:21;;;;;;;7.32;1.40;;;29.30;49.80;;;;;;4991149;28;20030;-54
2022/07/13 09:28:48;;;;;;;10.50;1.63;;;;;;;;;;4992502;28;20038;-56
2022/07/13 09:31:14;;;;;;;7.72;1.95;;;;;;;;;;4991439;28;20072;-51
2022/07/13 09:33:43;;;;;;;3.15;1.42;;;;;;;;;;4993158;28;20457;-54
2022/07/13 09:36:11;;;;;;;3.25;1.40;;;;;;;;;;4990863;28;20019;-54
2022/07/13 09:38:46;;;;;;;5.57;1.90;;;;;;;;;;4992221;28;20161;-56
2022/07/13 09:41:18;;;;;;;3.47;1.88;;;;;;;;;;4992883;28;20037;-60
2022/07/13 09:46:54;;;;;;;5.95;1.35;;;;;;;;;;4991442;28;20459;-59
2022/07/13 09:49:29;;;;;;;6.10;2.00;;;;;;;;;;4991373;28;20538;-60
2022/07/13 09:51:57;;;;;;;2.17;1.20;;;;;;;;;;4992245;28;20026;-59
2022/07/13 09:54:25;;;;;;;15.20;1.50;;;;;;;;;;4992499;28;20113;-60
2022/07/13 09:56:51;;;;;;;3.10;1.05;;;;;;;;;;4991158;28;20115;-60
2022/07/13 09:59:19;;;;;;;4.63;1.25;;;;;;;;;;4992034;28;20058;-64
2022/07/13 10:01:45;;;;;;;30.40;24.83;;;;;;;;;;4989165;28;20470;-65
2022/07/13 10:04:12;;;;;;;6.13;1.30;;;;;;;;;;4982709;28;20037;-64
2022/07/13 10:06:39;;;;;;;4.82;1.38;;;;;;;;;;4982783;28;20027;-63
2022/07/13 10:09:05;;;;;;;8.15;3.17;;;;;;;;;;4988796;28;20045;-60
2022/07/13 10:11:32;;;;;;;5.63;1.20;;;;;;;;;;4991382;28;20647;-56
2022/07/13 10:13:58;;;;;;;1.67;1.20;;;29.30;50.10;;;;;;4991601;28;20037;-59
2022/07/13 10:16:28;;;;;;;3.38;2.33;;;;;;;;;;4991795;28;20041;-57
2022/07/13 10:18:55;;;;;;;2.72;1.10;;;;;;;;;;4990897;28;20038;-56
2022/07/13 10:21:27;;;;;;;6.65;1.45;;;;;;;;;;4992313;28;20103;-54
2022/07/13 10:23:53;;;;;;;3.50;1.20;;;;;;;;;;4990523;28;20092;-54
2022/07/13 10:26:20;;;;;;;2.17;1.50;;;;;;;;;;4992074;28;20027;-56
2022/07/13 10:29:01;;;;;;;7.90;1.35;;;;;;;;;;4991719;28;20052;-56
2022/07/13 10:31:28;;;;;;;2.80;1.48;;;;;;;;;;4989192;28;20094;-57
2022/07/13 10:33:54;;;;;;;4.78;1.30;;;;;;;;;;4986447;28;20405;-57
2022/07/13 10:36:39;;;;;;;4.03;1.20;;;;;;;;;;4991667;28;20031;-57
2022/07/13 10:39:11;;;;;;;1.50;1.02;;;;;;;;;;4987744;28;20097;-53
2022/07/13 10:41:55;;;;;;;3.97;1.35;;;;;;;;;;4994191;28;20026;-55
2022/07/13 10:44:33;;;;;;;2.78;1.10;;;;;;;;;;4993890;28;20479;-59
2022/07/13 10:46:59;;;;;;;10.27;2.35;;;;;;;;;;4995642;28;20027;-58
2022/07/13 10:49:35;;;;;;;4.05;1.10;;;;;;;;;;4991569;28;20030;-54
2022/07/13 10:52:27;;;;;;;3.85;1.23;;;;;;;;;;4993105;28;20117;-58
2022/07/13 10:55:09;;;;;;;1.70;1.20;;;;;;;;;;4987948;28;20034;-56
2022/07/13 10:57:37;;;;;;;3.33;1.20;;;;;;;;;;4992246;28;20023;-57
2022/07/13 11:00:18;;;;;;;2.10;1.23;;;;;;;;;;4989983;28;20043;-59
2022/07/13 11:02:53;;;;;;;5.10;1.00;;;;;;;;;;4992477;28;20552;-54
2022/07/13 11:05:35;;;;;;;6.30;1.27;;;;;;;;;;4993264;28;20022;-57
2022/07/13 11:08:14;;;;;;;2.10;1.50;;;;;;;;;;5017013;23;20132;-55
2022/07/13 11:10:40;;;;;;;0.90;0.90;;;;;;;;;;5005961;28;20080;-54
2022/07/13 11:13:09;;;;;;;0.98;0.90;;;;;;;;;;5015070;28;20385;-57
2022/07/13 11:15:52;;;;;;;3.08;0.95;;;;;;;;;;5001956;28;20409;-53
2022/07/13 11:18:21;;;;;;;0.88;0.82;;;;;;;;;;4976738;28;20030;-55
2022/07/13 11:20:59;;;;;;;2.47;1.05;;;;;;;;;;4981183;28;20114;-57
2022/07/13 11:26:18;;;;;;;4.05;1.25;;;;;;;;;;4984010;28;20049;-58
2022/07/13 11:29:03;;;;;;;4.82;1.15;;;;;;;;;;4993527;28;20041;-57
2022/07/13 11:31:29;;;;;;;2.55;1.40;;;;;;;;;;4994974;28;20043;-56
2022/07/13 11:33:55;;;;;;;2.53;1.10;;;;;;;;;;4993847;28;20038;-56
2022/07/13 11:36:24;;;;;;;4.13;1.00;;;;;;;;;;4994786;28;20041;-56
2022/07/13 11:38:51;;;;;;;2.17;1.05;;;;;;;;;;4994190;28;20030;-55
2022/07/13 11:41:23;;;;;;;4.20;1.20;;;;;;;;;;4994667;28;20038;-57
2022/07/13 11:43:49;;;;;;;2.25;1.20;;;;;;;;;;4992995;28;20072;-56
2022/07/13 11:46:22;;;;;;;1.52;0.80;;;;;;;;;;4993436;28;20023;-57
2022/07/13 11:48:48;;;;;;;3.25;1.48;;;;;;;;;;4975295;28;20034;-56
2022/07/13 11:51:14;;;;;;;6.38;1.00;;;;;;;;;;4973075;28;20033;-57
2022/07/13 11:53:40;;;;;;;8.75;1.90;;;30.20;44.50;;;;;;4991640;28;20033;-56
2022/07/13 11:56:08;;;;;;;5.17;1.10;;;;;;;;;;4993753;28;20030;-57
2022/07/13 11:58:35;;;;;;;4.93;1.27;;;;;;;;;;4993977;28;20869;-56
2022/07/13 12:01:08;;;;;;;3.28;1.10;;;;;;;;;;4994676;28;20034;-58
2022/07/13 12:03:35;;;;;;;1.30;1.20;;;;;;;;;;4994392;28;20034;-58
2022/07/13 12:06:07;;;;;;;1.35;0.93;;;;;;;;;;4993952;28;20113;-56
2022/07/13 12:08:35;;;;;;;8.68;1.63;;;;;;;;;;4974803;28;20049;-55
2022/07/13 12:11:03;;;;;;;2.33;1.10;;;;;;;;;;4975013;28;20037;-55
2022/07/13 12:13:30;;;;;;;3.03;1.35;;;;;;;;;;4975029;28;20077;-57
2022/07/13 12:15:57;;;;;;;2.70;1.42;;;;;;;;;;4981697;28;20030;-55
2022/07/13 12:18:23;;;;;;;1.33;1.00;;;;;;;;;;4994180;28;20058;-56
2022/07/13 12:20:49;;;;;;;2.08;1.10;;;;;;;;;;4994059;28;20026;-56
2022/07/13 12:23:17;;;;;;;3.30;1.15;;;;;;;;;;4994201;28;20034;-55
2022/07/13 12:25:44;;;;;;;21.35;1.50;;;;;;;;;;4993941;28;20026;-55
2022/07/13 12:28:10;;;;;;;2.13;1.42;;;;;;;;;;4993650;28;20049;-57
2022/07/13 12:30:37;;;;;;;5.82;1.33;;;;;;;;;;4993035;28;20029;-57
2022/07/13 12:33:04;;;;;;;4.57;1.50;;;;;;;;;;4992645;28;20034;-56
2022/07/13 12:35:37;;;;;;;4.30;1.20;;;;;;;;;;4993765;28;20034;-57
2022/07/13 12:38:12;;;;;;;3.13;1.10;;;;;;;;;;4993895;28;20026;-56
2022/07/13 12:40:40;;;;;;;1.60;1.13;;;;;;;;;;4985322;28;20557;-58
2022/07/13 12:43:27;;;;;;;5.43;1.10;;;;;;;;;;4993790;28;20042;-58
2022/07/13 12:45:54;;;;;;;3.92;1.35;;;;;;;;;;4993304;28;20113;-54
2022/07/13 12:48:24;;;;;;;2.22;1.33;;;;;;;;;;4984699;28;20110;-55
2022/07/13 12:50:57;;;;;;;3.95;1.40;;;;;;;;;;4975071;28;20114;-56
2022/07/13 12:53:23;;;;;;;3.85;1.25;;;;;;;;;;4984070;28;20026;-56
2022/07/13 12:55:55;;;;;;;2.47;1.25;;;;;;;;;;4993364;28;20109;-58
2022/07/13 12:58:39;;;;;;;3.08;1.40;;;;;;;;;;4989104;28;20034;-57
2022/07/13 13:01:05;;;;;;;6.22;1.40;;;;;;;;;;4985696;28;20026;-55
2022/07/13 13:03:31;;;;;;;8.52;1.55;;;;;;;;;;4993000;28;20116;-54
2022/07/13 13:05:57;;;;;;;5.97;4.00;;;;;;;;;;4993330;28;20031;-55
2022/07/13 13:08:23;;;;;;;6.00;1.95;;;;;;;;;;4993145;28;20514;-54
2022/07/13 13:10:49;;;;;;;1.85;1.20;;;;;;;;;;4993122;28;20113;-54
2022/07/13 13:13:15;;;;;;;4.45;1.40;;;33.10;37.90;;;;;;4993156;28;20084;-54
2022/07/13 13:15:41;;;;;;;2.80;1.27;;;;;;;;;;4992706;28;20034;-55
2022/07/13 13:18:07;;;;;;;4.13;1.38;;;;;;;;;;4992905;28;20269;-55
2022/07/13 13:20:33;;;;;;;2.25;1.30;;;;;;;;;;4992338;28;20034;-54
2022/07/13 13:22:59;;;;;;;1.63;1.42;;;34.10;37.00;;;;;;4993047;28;20125;-56
2022/07/13 13:25:25;;;;;;;3.42;1.65;;;34.00;36.70;;;;;;4991723;28;20537;-55
2022/07/13 13:27:51;;;;;;;5.30;1.35;;;;;;;;;;4993029;28;20030;-56
2022/07/13 13:33:02;;;;;;;2.85;1.15;;;;;;;;;;4992814;28;20029;-56
2022/07/13 13:35:28;;;;;;;1.50;1.00;;;;;;;;;;4992729;28;20076;-54
2022/07/13 13:37:54;;;;;;;;;;;;;;;;;;4993002;28;20101;-57
2022/07/13 13:40:20;;;;;;;2.70;1.13;;;;;;;;;;4991450;28;20012;-55
2022/07/13 13:42:46;;;;;;;3.65;1.00;;;;;;;;;;4987869;28;20039;-55
2022/07/13 13:45:12;;;;;;;8.20;1.48;;;;;;;;;;4990672;28;20026;-54
2022/07/13 13:47:38;;;;;;;1.00;0.90;;;;;;;;;;4992149;28;20026;-55
2022/07/13 13:50:05;;;;;;;3.67;1.70;;;;;;;;;;4992513;28;20487;-56
2022/07/13 13:52:30;;;;;;;3.05;1.30;;;34.40;38.70;;;;;;4992486;28;20073;-56
2022/07/13 13:54:56;;;;;;;6.75;2.17;;;46.70;26.80;;;;;;4992138;28;20022;-57
2022/07/13 13:57:22;;;;;;;25.33;2.90;;;;;;;;;;4989630;28;20023;-56
2022/07/13 13:59:48;;;;;;;1.80;1.10;;;;;;;;;;4979715;28;20109;-54
2022/07/13 14:02:14;;;;;;;4.35;1.48;;;;;;;;;;4990956;28;20030;-57
2022/07/13 14:04:40;;;;;;;3.22;1.20;;;46.90;25.40;;;;;;4987731;28;20018;-54
2022/07/13 14:07:06;;;;;;;6.35;1.67;;;49.60;23.30;;;;;;4972885;28;20157;-56
2022/07/13 14:09:31;;;;;;;8.73;1.38;;;49.60;23.80;;;;;;4972753;28;20510;-57
2022/07/13 14:11:58;;;;;;;1.02;1.02;;;50.00;23.50;;;;;;4972963;28;20476;-54
2022/07/13 14:14:24;;;;;;;4.63;1.45;;;;;;;;;;4975885;28;20146;-56
2022/07/13 14:16:50;;;;;;;3.13;1.23;;;;;;;;;;4987333;28;20046;-54
2022/07/13 14:19:16;;;;;;;5.53;1.20;;;51.90;22.80;;;;;;4984571;28;20019;-54
2022/07/13 14:21:41;;;;;;;1.30;1.20;;;52.10;22.40;;;;;;4977415;28;20093;-52
2022/07/13 14:24:07;;;;;;;2.47;1.25;;;;;;;;;;4992583;28;20038;-53
2022/07/13 14:26:33;;;;;;;3.30;1.42;;;52.40;21.70;;;;;;4992182;28;20038;-55
2022/07/13 14:28:59;;;;;;;2.53;1.35;;;52.80;21.80;;;;;;4980369;28;20030;-52
2022/07/13 14:31:24;;;;;;;2.50;1.23;;;53.00;21.50;;;;;;4985315;28;20038;-53
2022/07/13 14:33:50;;;;;;;6.80;1.60;;;53.30;21.40;;;;;;4991157;28;20037;-53
2022/07/13 14:36:23;;;;;;;2.75;1.40;;;53.60;21.30;;;;;;4985413;28;20502;-52